Time;durP1;ratioP1;P1;durP2;ratioP2;P2;SDS_P1;SDS_P2;PMS_P1;PMS_P2;Temp;Humidity;BMP_temperature;BMP_pressure;BME280_temperature;BME280_humidity;BME280_pressure;Samples;Min_cycle;Max_cycle;Signal;HPM_P1;HPM_P2
2023/12/19 06:00:29;;;;;;;8.13;4.80;;;1.20;82.70;;;;;;4847223;23;20213;-82
2023/12/19 06:02:30;;;;;;;8.27;4.68;;;1.20;82.40;;;;;;4132648;28;20454;-79
2023/12/19 06:04:34;;;;;;;8.07;4.68;;;1.20;83.00;;;;;;4133400;28;20101;-82
2023/12/19 06:06:40;;;;;;;9.00;4.90;;;1.20;82.00;;;;;;4132933;28;20054;-81
2023/12/19 06:08:43;;;;;;;11.55;5.57;;;1.20;82.10;;;;;;4132994;28;20050;-83
2023/12/19 06:10:45;;;;;;;7.53;3.97;;;1.20;82.10;;;;;;4131965;28;20057;-81
2023/12/19 06:12:47;;;;;;;8.10;3.75;;;1.30;81.50;;;;;;4132705;28;20054;-80
2023/12/19 06:14:48;;;;;;;10.95;5.18;;;1.40;81.50;;;;;;4133253;28;20145;-80
2023/12/19 06:16:52;;;;;;;8.13;4.72;;;1.40;81.60;;;;;;4132972;28;20053;-79
2023/12/19 06:18:54;;;;;;;9.35;5.43;;;1.40;81.80;;;;;;4132431;28;20050;-82
2023/12/19 06:20:54;;;;;;;8.65;5.10;;;1.30;82.10;;;;;;4132732;28;20054;-80
2023/12/19 06:22:56;;;;;;;10.52;5.25;;;1.30;82.40;;;;;;4133147;28;20089;-81
2023/12/19 06:24:58;;;;;;;8.73;5.45;;;1.20;82.70;;;;;;4133586;28;20050;-80
2023/12/19 06:27:00;;;;;;;9.20;5.05;;;1.30;82.70;;;;;;4132764;28;20069;-81
2023/12/19 06:29:03;;;;;;;9.52;5.50;;;1.30;82.70;;;;;;4132710;28;20082;-81
2023/12/19 06:31:05;;;;;;;8.63;4.75;;;1.30;82.40;;;;;;4132583;28;20058;-81
2023/12/19 06:33:09;;;;;;;8.15;4.72;;;1.20;82.60;;;;;;4133187;28;20058;-80
2023/12/19 06:35:11;;;;;;;9.52;5.05;;;1.20;82.80;;;;;;4133178;28;20046;-82
2023/12/19 06:37:12;;;;;;;8.40;4.75;;;1.20;82.40;;;;;;4132434;28;20097;-81
2023/12/19 06:39:14;;;;;;;9.13;5.55;;;1.20;82.50;;;;;;4132474;28;20096;-81
2023/12/19 06:41:19;;;;;;;8.27;4.78;;;1.20;82.60;;;;;;4132223;28;20475;-80
2023/12/19 06:43:21;;;;;;;10.18;5.45;;;1.30;82.80;;;;;;4132164;28;20054;-80
2023/12/19 06:45:22;;;;;;;9.27;5.28;;;1.30;82.70;;;;;;4132129;28;20054;-81
2023/12/19 06:47:26;;;;;;;9.10;5.32;;;1.20;82.40;;;;;;4132277;28;20054;-81
2023/12/19 06:49:29;;;;;;;10.45;5.75;;;1.20;82.60;;;;;;4132546;28;20055;-81
2023/12/19 06:51:32;;;;;;;10.65;5.53;;;1.10;82.60;;;;;;4132567;28;20399;-82
2023/12/19 06:53:34;;;;;;;8.68;5.03;;;1.10;82.60;;;;;;4132506;28;20121;-80
2023/12/19 06:55:36;;;;;;;9.40;5.20;;;1.20;82.80;;;;;;4132751;28;20105;-81
2023/12/19 06:57:37;;;;;;;9.48;4.60;;;1.20;82.50;;;;;;4132567;28;20101;-79
2023/12/19 06:59:40;;;;;;;9.57;5.40;;;1.20;82.50;;;;;;4132370;28;20117;-80
2023/12/19 07:01:43;;;;;;;10.05;5.35;;;1.30;82.20;;;;;;4132507;28;20426;-81
2023/12/19 07:03:44;;;;;;;10.40;5.53;;;1.20;81.80;;;;;;4132511;28;20073;-81
2023/12/19 07:05:47;;;;;;;10.15;5.57;;;1.20;81.80;;;;;;4132292;28;20047;-80
2023/12/19 07:07:51;;;;;;;10.27;5.70;;;1.20;82.40;;;;;;4132061;28;20097;-81
2023/12/19 07:09:52;;;;;;;10.70;5.95;;;1.30;82.10;;;;;;4132548;28;20050;-80
2023/12/19 07:11:53;;;;;;;10.70;5.97;;;1.30;81.90;;;;;;4132604;28;20042;-80
2023/12/19 07:13:55;;;;;;;11.57;6.20;;;1.30;82.10;;;;;;4132144;28;20044;-81
2023/12/19 07:15:56;;;;;;;11.38;5.93;;;1.20;81.80;;;;;;4132349;28;20459;-81
2023/12/19 07:17:58;;;;;;;10.80;6.00;;;1.20;82.10;;;;;;4132297;28;20050;-80
2023/12/19 07:20:00;;;;;;;9.70;6.10;;;1.10;81.80;;;;;;4132254;28;20050;-81
2023/12/19 07:22:02;;;;;;;10.93;6.35;;;1.10;82.20;;;;;;4132023;28;20101;-80
2023/12/19 07:24:05;;;;;;;11.23;6.72;;;1.10;82.40;;;;;;4132148;28;20057;-81
2023/12/19 07:26:07;;;;;;;13.02;6.43;;;1.10;82.10;;;;;;4132046;28;20050;-80
2023/12/19 07:28:09;;;;;;;13.77;6.90;;;1.10;82.20;;;;;;4132247;28;20050;-81
2023/12/19 07:30:13;;;;;;;11.95;6.57;;;1.10;82.30;;;;;;4132209;28;20101;-81
2023/12/19 07:32:15;;;;;;;10.73;5.70;;;1.10;82.40;;;;;;4133025;28;20137;-80
2023/12/19 07:34:17;;;;;;;7.75;4.85;;;1.00;82.00;;;;;;4135323;28;20484;-81
2023/12/19 07:36:19;;;;;;;9.82;5.10;;;1.00;81.70;;;;;;4135160;28;20050;-80
2023/12/19 07:38:22;;;;;;;8.55;5.20;;;1.10;82.70;;;;;;4118142;28;20054;-81
2023/12/19 07:40:24;;;;;;;11.85;5.97;;;1.20;81.80;;;;;;4117981;28;20051;-81
2023/12/19 07:42:26;;;;;;;9.65;5.50;;;1.20;81.70;;;;;;4135196;28;20054;-80
2023/12/19 07:44:28;;;;;;;10.55;5.75;;;1.30;81.90;;;;;;4134810;28;20104;-79
2023/12/19 07:46:29;;;;;;;10.27;5.68;;;1.30;81.80;;;;;;4135217;28;20069;-79
2023/12/19 07:48:31;;;;;;;10.05;5.43;;;1.30;81.60;;;;;;4118026;28;20043;-80
2023/12/19 07:50:33;;;;;;;9.90;5.10;;;1.30;81.60;;;;;;4135167;28;20050;-80
2023/12/19 07:52:36;;;;;;;9.60;5.32;;;1.30;81.60;;;;;;4134925;28;20446;-81
2023/12/19 07:54:39;;;;;;;10.05;5.45;;;1.40;81.50;;;;;;4135365;28;20052;-80
2023/12/19 07:56:42;;;;;;;11.48;5.22;;;1.40;81.40;;;;;;4134029;28;20100;-81
2023/12/19 07:58:44;;;;;;;10.23;5.85;;;1.40;81.90;;;;;;4134352;28;20058;-81
2023/12/19 08:00:47;;;;;;;10.70;5.22;;;1.40;81.90;;;;;;4135070;28;20085;-81
2023/12/19 08:02:52;;;;;;;8.40;5.22;;;1.40;81.60;;;;;;4134980;28;20402;-79
2023/12/19 08:04:54;;;;;;;8.70;4.80;;;1.40;81.60;;;;;;4135323;28;20543;-81
2023/12/19 08:06:56;;;;;;;11.57;5.72;;;1.50;81.70;;;;;;4135310;28;20097;-80
2023/12/19 08:08:58;;;;;;;9.63;5.45;;;1.50;81.10;;;;;;4135146;28;20105;-81
2023/12/19 08:11:00;;;;;;;10.25;5.80;;;1.50;81.10;;;;;;4135381;28;20349;-79
2023/12/19 08:13:02;;;;;;;12.13;5.90;;;1.50;81.50;;;;;;4134932;28;20054;-82
2023/12/19 08:15:04;;;;;;;11.25;5.75;;;1.50;81.60;;;;;;4135035;28;20062;-81
2023/12/19 08:17:06;;;;;;;11.02;6.32;;;1.50;81.70;;;;;;4118298;28;20083;-80
2023/12/19 08:19:09;;;;;;;10.15;6.22;;;1.40;81.70;;;;;;4117588;28;20142;-81
2023/12/19 08:21:11;;;;;;;11.30;6.88;;;1.50;81.20;;;;;;4135073;28;20073;-81
2023/12/19 08:23:13;;;;;;;13.73;6.88;;;1.40;81.10;;;;;;4135137;28;20046;-80
2023/12/19 08:25:15;;;;;;;13.40;7.20;;;1.30;81.20;;;;;;4134926;28;20053;-81
2023/12/19 08:27:22;;;;;;;12.02;6.88;;;1.30;81.60;;;;;;4134923;28;20109;-80
2023/12/19 08:29:23;;;;;;;12.18;7.07;;;1.30;81.70;;;;;;4134718;28;20057;-82
2023/12/19 08:31:25;;;;;;;13.02;7.15;;;1.40;81.70;;;;;;4117767;28;20051;-83
2023/12/19 08:33:28;;;;;;;11.70;6.95;;;1.30;81.50;;;;;;4134980;28;20047;-81
2023/12/19 08:35:30;;;;;;;12.30;7.18;;;1.40;81.80;;;;;;4134725;28;20566;-80
2023/12/19 08:37:31;;;;;;;13.77;7.13;;;1.40;81.80;;;;;;4134616;28;20129;-80
2023/12/19 08:39:33;;;;;;;11.82;6.85;;;1.40;82.00;;;;;;4134567;28;20407;-82
2023/12/19 08:41:35;;;;;;;14.43;7.85;;;1.40;82.20;;;;;;4134760;28;20395;-81
2023/12/19 08:43:38;;;;;;;12.10;7.30;;;1.40;82.30;;;;;;4134314;28;20042;-81
2023/12/19 08:45:41;;;;;;;12.40;7.10;;;1.40;82.70;;;;;;4117158;28;20043;-81
2023/12/19 08:47:44;;;;;;;14.45;7.70;;;1.40;83.30;;;;;;4134085;28;20042;-81
2023/12/19 08:49:46;;;;;;;14.45;7.53;;;1.50;83.00;;;;;;4134235;28;20423;-82
2023/12/19 08:51:49;;;;;;;14.93;7.57;;;1.50;82.70;;;;;;4134617;28;20054;-81
2023/12/19 08:53:50;;;;;;;12.32;7.55;;;1.60;82.60;;;;;;4133305;28;20121;-81
2023/12/19 08:55:52;;;;;;;13.35;7.47;;;1.60;82.40;;;;;;4134316;28;20050;-81
2023/12/19 08:57:54;;;;;;;13.02;7.90;;;1.60;82.20;;;;;;4134504;28;20054;-82
2023/12/19 08:59:58;;;;;;;14.20;7.65;;;1.70;82.10;;;;;;4134121;28;20057;-81
2023/12/19 09:02:00;;;;;;;12.05;7.45;;;1.70;82.10;;;;;;4133978;28;20058;-81
2023/12/19 09:04:01;;;;;;;12.05;7.03;;;1.70;81.60;;;;;;4133186;28;20054;-80
2023/12/19 09:06:03;;;;;;;10.85;7.07;;;1.80;81.90;;;;;;4134363;28;20488;-81
2023/12/19 09:08:06;;;;;;;13.05;7.80;;;1.80;81.80;;;;;;4134111;28;20054;-80
2023/12/19 09:10:11;;;;;;;12.93;7.70;;;1.80;81.70;;;;;;4133996;28;20096;-81
2023/12/19 09:12:13;;;;;;;13.35;8.00;;;1.90;81.70;;;;;;4134184;28;20046;-81
2023/12/19 09:14:16;;;;;;;13.77;7.80;;;1.90;81.50;;;;;;4134268;28;20492;-82
2023/12/19 09:16:20;;;;;;;13.02;7.85;;;1.90;81.50;;;;;;4134282;28;20376;-81
2023/12/19 09:18:24;;;;;;;13.13;8.07;;;2.00;81.70;;;;;;4116796;28;20420;-82
2023/12/19 09:20:26;;;;;;;13.68;7.97;;;2.00;81.60;;;;;;4134251;28;20431;-82
2023/12/19 09:22:27;;;;;;;13.15;8.07;;;2.10;81.80;;;;;;4133518;28;20058;-79
2023/12/19 09:24:30;;;;;;;13.63;7.82;;;2.10;81.80;;;;;;4133848;28;20061;-80
2023/12/19 09:26:33;;;;;;;13.45;7.88;;;2.10;81.30;;;;;;4134108;28;20112;-82
2023/12/19 09:28:35;;;;;;;12.80;7.50;;;2.20;81.30;;;;;;4134131;28;20057;-82
2023/12/19 09:30:37;;;;;;;14.73;8.02;;;2.20;81.30;;;;;;4133484;28;20399;-82
2023/12/19 09:32:42;;;;;;;13.98;8.32;;;2.30;81.30;;;;;;4117713;28;20113;-79
2023/12/19 09:34:44;;;;;;;16.17;8.73;;;2.30;81.30;;;;;;4117858;28;20055;-81
2023/12/19 09:36:45;;;;;;;14.48;8.13;;;2.40;81.20;;;;;;4117435;28;20046;-81
2023/12/19 09:38:47;;;;;;;16.05;8.90;;;2.50;81.30;;;;;;4114707;28;20133;-81
2023/12/19 09:40:49;;;;;;;15.15;8.50;;;2.50;80.80;;;;;;4125560;28;20108;-79
2023/12/19 09:42:51;;;;;;;13.30;8.18;;;2.60;81.10;;;;;;4114550;28;20167;-81
2023/12/19 09:44:53;;;;;;;15.98;8.70;;;2.60;80.90;;;;;;4099545;28;20086;-77
2023/12/19 09:46:56;;;;;;;15.98;8.63;;;2.70;80.50;;;;;;4132515;28;20054;-83
2023/12/19 09:48:59;;;;;;;15.00;8.93;;;2.80;80.30;;;;;;4131738;28;20108;-79
2023/12/19 09:51:03;;;;;;;13.68;8.05;;;2.80;80.20;;;;;;4131008;28;20057;-81
2023/12/19 09:53:09;;;;;;;12.43;8.70;;;2.90;80.10;;;;;;4131556;28;20145;-82
2023/12/19 09:55:11;;;;;;;14.90;9.15;;;3.00;79.80;;;;;;4131111;28;20074;-82
2023/12/19 09:57:13;;;;;;;17.17;9.30;;;3.00;79.70;;;;;;4131085;28;20054;-81
2023/12/19 09:59:18;;;;;;;14.95;8.95;;;3.10;79.60;;;;;;4130670;28;20498;-83
2023/12/19 10:01:20;;;;;;;15.98;9.52;;;3.20;79.30;;;;;;4130947;28;20065;-80
2023/12/19 10:03:22;;;;;;;16.70;9.00;;;3.10;79.20;;;;;;4130930;28;20116;-81
2023/12/19 10:05:26;;;;;;;15.13;9.02;;;3.20;79.30;;;;;;4130964;28;20066;-80
2023/12/19 10:07:30;;;;;;;16.85;9.35;;;3.20;79.10;;;;;;4131068;28;20154;-80
2023/12/19 10:09:32;;;;;;;14.50;9.50;;;3.30;79.00;;;;;;4130937;28;20136;-80
2023/12/19 10:11:33;;;;;;;14.18;9.32;;;3.40;79.00;;;;;;4130209;28;20484;-80
2023/12/19 10:13:37;;;;;;;16.67;9.30;;;3.40;78.70;;;;;;4130806;28;20096;-79
2023/12/19 10:15:37;;;;;;;15.25;9.02;;;3.50;79.20;;;;;;4130634;28;20086;-79
2023/12/19 10:17:39;;;;;;;14.65;8.40;;;3.60;79.00;;;;;;4130762;28;20046;-79
2023/12/19 10:19:41;;;;;;;14.10;8.57;;;3.60;78.70;;;;;;4130554;28;20058;-79
2023/12/19 10:21:47;;;;;;;15.98;8.93;;;3.70;77.90;;;;;;4130401;28;20550;-78
2023/12/19 10:23:48;;;;;;;;;;;3.60;77.30;;;;;;4114619;28;20104;-80
2023/12/19 10:25:52;;;;;;;17.48;9.60;;;3.60;77.90;;;;;;4130715;28;19926;-79
2023/12/19 10:28:07;;;;;;;17.00;9.20;;;3.60;78.10;;;;;;4130414;28;20050;-81
2023/12/19 10:30:20;;;;;;;18.05;10.18;;;3.60;78.60;;;;;;4130391;28;20082;-79
2023/12/19 10:32:22;;;;;;;16.48;10.27;;;3.60;78.50;;;;;;4130866;28;20050;-80
2023/12/19 10:34:25;;;;;;;20.60;10.15;;;3.50;78.50;;;;;;4130773;28;20047;-78
2023/12/19 10:36:28;;;;;;;18.10;10.32;;;3.50;78.50;;;;;;4130846;28;20089;-81
2023/12/19 10:38:45;;;;;;;16.63;9.93;;;3.60;78.80;;;;;;4128416;28;20573;-78
2023/12/19 10:41:02;;;;;;;17.30;10.30;;;3.70;78.80;;;;;;4129984;28;20512;-80
2023/12/19 10:43:05;;;;;;;15.23;10.13;;;3.80;78.50;;;;;;4130397;28;20476;-79
2023/12/19 10:45:09;;;;;;;16.83;10.93;;;3.90;78.40;;;;;;4130731;28;20046;-77
2023/12/19 10:47:11;;;;;;;20.30;11.70;;;3.90;78.40;;;;;;4130294;28;20104;-79
2023/12/19 10:49:13;;;;;;;18.45;10.98;;;4.00;78.40;;;;;;4130431;28;20054;-80
2023/12/19 10:51:18;;;;;;;20.00;11.40;;;4.00;78.20;;;;;;4129885;28;20142;-78
2023/12/19 10:53:19;;;;;;;19.13;10.93;;;4.10;78.30;;;;;;4130447;28;20078;-79
2023/12/19 10:55:28;;;;;;;18.75;11.25;;;4.10;78.20;;;;;;4130619;28;20046;-81
2023/12/19 10:57:35;;;;;;;18.83;11.32;;;4.10;78.10;;;;;;4131477;28;20058;-81
2023/12/19 10:59:46;;;;;;;18.20;10.65;;;4.20;78.20;;;;;;4130558;28;20134;-81
2023/12/19 11:01:53;;;;;;;17.40;11.00;;;4.20;77.80;;;;;;4114573;28;20058;-82
2023/12/19 11:04:00;;;;;;;17.95;10.60;;;4.20;77.60;;;;;;4130225;28;20058;-81
2023/12/19 11:06:06;;;;;;;;;;;4.20;78.00;;;;;;4131542;28;20113;-80
2023/12/19 11:08:12;;;;;;;16.95;11.13;;;4.20;77.70;;;;;;4133087;28;20028;-80
2023/12/19 11:10:15;;;;;;;;;;;4.20;77.60;;;;;;4134237;28;20381;-81
2023/12/19 11:12:19;;;;;;;17.48;10.73;;;4.30;77.50;;;;;;4117019;28;19993;-81
2023/12/19 11:14:24;;;;;;;20.13;11.27;;;4.30;77.50;;;;;;4134435;28;20377;-82
2023/12/19 11:16:36;;;;;;;19.65;11.38;;;4.30;77.40;;;;;;4132845;28;20540;-81
2023/12/19 11:18:46;;;;;;;18.15;10.38;;;4.30;77.50;;;;;;4134040;28;20062;-82
2023/12/19 11:20:56;;;;;;;19.60;11.88;;;4.40;77.40;;;;;;4134345;28;20062;-82
2023/12/19 11:23:13;;;;;;;19.27;11.98;;;4.40;77.10;;;;;;4135023;28;20078;-81
2023/12/19 11:25:26;;;;;;;20.75;12.68;;;4.40;77.20;;;;;;4134337;28;20089;-81
2023/12/19 11:27:40;;;;;;;19.23;12.40;;;4.50;77.30;;;;;;4134421;28;20108;-82
2023/12/19 11:29:45;;;;;;;19.98;11.85;;;4.40;77.20;;;;;;4134072;28;20125;-81
2023/12/19 11:31:47;;;;;;;22.30;13.70;;;4.50;77.30;;;;;;4134202;28;20476;-82
2023/12/19 11:33:48;;;;;;;18.80;12.40;;;4.50;77.60;;;;;;4134003;28;20050;-80
2023/12/19 11:35:50;;;;;;;19.77;13.00;;;4.60;78.00;;;;;;4116432;28;20089;-80
2023/12/19 11:38:25;;;;;;;25.15;15.50;;;4.60;78.10;;;;;;4131628;28;20137;-81
2023/12/19 11:40:56;;;;;;;20.52;13.60;;;4.60;78.10;;;;;;4133702;28;20076;-79
2023/12/19 11:43:01;;;;;;;21.90;13.05;;;4.70;78.20;;;;;;4084065;28;20066;-79
2023/12/19 11:45:38;;;;;;;25.17;13.73;;;4.70;77.90;;;;;;4117257;28;20051;-80
2023/12/19 11:47:40;;;;;;;21.67;13.40;;;4.80;77.80;;;;;;4115687;28;20097;-78
2023/12/19 11:49:42;;;;;;;20.83;12.77;;;4.80;77.60;;;;;;4116995;28;20055;-79
2023/12/19 11:51:55;;;;;;;20.98;13.00;;;4.80;77.60;;;;;;4127481;28;20042;-81
2023/12/19 11:53:56;;;;;;;18.63;12.02;;;5.00;77.70;;;;;;4133338;28;20050;-79
2023/12/19 11:56:09;;;;;;;22.33;13.20;;;5.10;77.30;;;;;;4133237;28;20050;-80
2023/12/19 11:58:13;;;;;;;19.40;13.07;;;5.20;77.20;;;;;;4133185;28;20085;-78
2023/12/19 12:00:15;;;;;;;19.55;12.52;;;5.20;76.80;;;;;;4133123;28;20555;-81
2023/12/19 12:02:52;;;;;;;22.50;13.05;;;5.20;76.20;;;;;;4132922;28;20058;-79
2023/12/19 12:05:12;;;;;;;19.45;12.15;;;5.20;76.20;;;;;;4132862;28;20105;-79
2023/12/19 12:07:14;;;;;;;22.20;12.77;;;5.20;75.80;;;;;;4115686;28;20547;-79
2023/12/19 12:09:19;;;;;;;25.10;14.63;;;5.20;75.60;;;;;;4115583;28;20139;-78
2023/12/19 12:11:21;;;;;;;32.50;18.37;;;5.20;75.80;;;;;;4132534;28;20416;-79
2023/12/19 12:13:25;;;;;;;22.83;13.32;;;5.20;75.30;;;;;;4132663;28;20113;-81
2023/12/19 12:15:27;;;;;;;18.95;12.63;;;5.20;75.10;;;;;;4132644;28;20096;-82
2023/12/19 12:17:29;;;;;;;21.75;13.18;;;5.30;75.10;;;;;;4132515;28;20050;-79
2023/12/19 12:19:32;;;;;;;18.55;12.27;;;5.20;75.00;;;;;;4132735;28;20049;-78
2023/12/19 12:21:33;;;;;;;18.15;12.20;;;5.20;74.90;;;;;;4132676;28;20108;-80
2023/12/19 12:23:37;;;;;;;19.55;12.43;;;5.30;75.20;;;;;;4132932;28;20054;-80
2023/12/19 12:25:38;;;;;;;21.50;12.05;;;5.40;74.40;;;;;;4132955;28;20128;-81
2023/12/19 12:27:40;;;;;;;17.63;11.73;;;5.60;73.80;;;;;;4132827;28;20050;-79
2023/12/19 12:29:44;;;;;;;17.65;11.82;;;5.70;73.90;;;;;;4133584;28;20073;-82
2023/12/19 12:31:47;;;;;;;19.35;12.40;;;5.80;73.80;;;;;;4132177;28;20050;-79
2023/12/19 12:33:49;;;;;;;19.30;12.45;;;5.90;72.80;;;;;;4132390;28;20640;-79
2023/12/19 12:35:50;;;;;;;21.35;12.43;;;5.80;72.70;;;;;;4132636;28;20108;-80
2023/12/19 12:37:57;;;;;;;18.65;12.52;;;5.80;72.80;;;;;;4131283;28;20069;-79
2023/12/19 12:40:04;;;;;;;19.55;12.45;;;5.70;72.80;;;;;;4132112;28;20496;-79
2023/12/19 12:42:08;;;;;;;18.48;12.30;;;5.60;73.10;;;;;;4132687;28;20472;-79
2023/12/19 12:44:13;;;;;;;21.27;12.95;;;5.50;73.90;;;;;;4132913;28;20549;-78
2023/12/19 12:46:19;;;;;;;17.95;12.52;;;5.40;75.00;;;;;;4132481;28;20055;-79
2023/12/19 12:48:20;;;;;;;20.70;13.02;;;5.40;74.30;;;;;;4132410;28;20050;-81
2023/12/19 12:50:22;;;;;;;21.38;13.40;;;5.40;74.60;;;;;;4132411;28;20051;-77
2023/12/19 12:52:24;;;;;;;19.10;12.52;;;5.30;74.40;;;;;;4132156;28;20455;-80
2023/12/19 12:54:25;;;;;;;21.77;13.38;;;5.30;74.50;;;;;;4131335;28;20128;-80
2023/12/19 12:56:32;;;;;;;24.15;13.80;;;5.20;74.60;;;;;;4131920;28;20156;-80
2023/12/19 12:58:34;;;;;;;19.92;13.40;;;5.20;74.80;;;;;;4132253;28;20050;-79
2023/12/19 13:00:35;;;;;;;22.90;13.57;;;5.30;74.80;;;;;;4131659;28;20050;-77
2023/12/19 13:02:39;;;;;;;23.73;13.02;;;5.30;74.60;;;;;;4132377;28;20050;-80
2023/12/19 13:04:40;;;;;;;22.63;13.90;;;5.40;74.40;;;;;;4131715;28;20054;-79
2023/12/19 13:06:43;;;;;;;21.15;13.25;;;5.50;74.00;;;;;;4131913;28;20058;-79
2023/12/19 13:08:46;;;;;;;20.83;13.63;;;5.70;73.70;;;;;;4131916;28;20609;-80
2023/12/19 13:10:47;;;;;;;23.58;13.35;;;6.00;73.40;;;;;;4132191;28;20468;-80
2023/12/19 13:12:50;;;;;;;19.40;12.55;;;6.10;73.30;;;;;;4119686;28;20055;-81
2023/12/19 13:14:52;;;;;;;19.70;12.68;;;6.20;72.00;;;;;;4115945;28;20050;-80
2023/12/19 13:16:52;;;;;;;20.67;12.88;;;6.70;71.30;;;;;;4115671;28;20455;-80
2023/12/19 13:18:56;;;;;;;22.52;13.07;;;7.60;68.90;;;;;;4116060;28;20113;-79
2023/12/19 13:20:58;;;;;;;21.60;13.00;;;7.60;66.60;;;;;;4115509;28;20058;-78
2023/12/19 13:23:00;;;;;;;19.48;13.15;;;7.50;66.90;;;;;;4115709;28;20125;-79
2023/12/19 13:25:03;;;;;;;19.65;13.48;;;7.60;66.80;;;;;;4115635;28;20358;-79
2023/12/19 13:27:06;;;;;;;20.45;13.00;;;7.40;66.20;;;;;;4115489;28;20484;-76
2023/12/19 13:29:08;;;;;;;21.73;12.90;;;7.60;66.30;;;;;;4115297;28;20051;-77
2023/12/19 13:31:10;;;;;;;19.35;12.95;;;10.20;61.10;;;;;;4115491;28;20467;-81
2023/12/19 13:33:12;;;;;;;19.45;12.75;;;9.80;58.60;;;;;;4115792;28;20145;-79
2023/12/19 13:35:15;;;;;;;19.40;13.18;;;9.10;59.90;;;;;;4116504;28;20390;-84
2023/12/19 13:37:17;;;;;;;20.20;12.85;;;8.60;61.20;;;;;;4121151;28;20062;-79
2023/12/19 13:39:20;;;;;;;20.95;13.77;;;8.10;62.70;;;;;;4116080;28;20415;-82
2023/12/19 13:41:22;;;;;;;21.45;13.20;;;7.70;64.00;;;;;;4116132;28;20065;-80
2023/12/19 13:43:24;;;;;;;20.33;13.45;;;7.30;65.30;;;;;;4116887;28;20109;-83
2023/12/19 13:45:28;;;;;;;19.05;13.38;;;6.80;66.60;;;;;;4117312;28;20054;-82
2023/12/19 13:47:29;;;;;;;19.90;13.07;;;6.60;68.20;;;;;;4116099;28;20071;-82
2023/12/19 13:49:30;;;;;;;19.20;13.35;;;6.50;69.30;;;;;;4113654;28;20443;-85
2023/12/19 13:51:34;;;;;;;19.55;13.45;;;6.30;69.20;;;;;;4131960;28;20136;-83
2023/12/19 13:53:36;;;;;;;20.52;13.63;;;6.10;69.70;;;;;;4131750;28;20054;-82
2023/12/19 13:55:38;;;;;;;20.98;14.15;;;6.00;70.50;;;;;;4132428;28;20101;-84
2023/12/19 13:57:39;;;;;;;23.52;13.57;;;5.90;71.10;;;;;;4132052;28;20062;-83
2023/12/19 13:59:41;;;;;;;22.40;13.70;;;5.90;71.60;;;;;;4132317;28;20138;-83
2023/12/19 14:01:44;;;;;;;21.33;13.77;;;5.80;72.10;;;;;;4131840;28;20062;-83
2023/12/19 14:03:46;;;;;;;21.98;14.35;;;5.70;72.30;;;;;;4131786;28;20108;-84
2023/12/19 14:05:48;;;;;;;21.42;13.38;;;5.60;72.40;;;;;;4114574;28;20485;-83
2023/12/19 14:07:51;;;;;;;20.92;13.77;;;5.60;73.00;;;;;;4132075;28;20073;-83
2023/12/19 14:09:54;;;;;;;20.92;13.00;;;5.50;73.10;;;;;;4131582;28;20046;-84
2023/12/19 14:11:54;;;;;;;23.27;14.75;;;5.50;73.30;;;;;;4131951;28;20092;-84
2023/12/19 14:13:56;;;;;;;22.00;14.48;;;5.40;73.40;;;;;;4131874;28;20065;-83
2023/12/19 14:15:58;;;;;;;21.02;14.20;;;5.40;73.60;;;;;;4131568;28;20112;-83
2023/12/19 14:18:00;;;;;;;23.00;14.45;;;5.30;73.80;;;;;;4131964;28;20046;-83
2023/12/19 14:20:05;;;;;;;27.75;17.48;;;5.30;74.00;;;;;;4132584;28;20058;-81
2023/12/19 14:22:07;;;;;;;37.83;23.58;;;5.30;74.40;;;;;;4133357;28;20095;-83
2023/12/19 14:24:10;;;;;;;63.28;36.67;;;5.20;74.20;;;;;;4132094;28;20050;-83
2023/12/19 14:26:12;;;;;;;49.78;29.10;;;5.20;74.60;;;;;;4133427;28;20057;-86
2023/12/19 14:28:13;;;;;;;24.58;15.35;;;5.10;74.70;;;;;;4132923;28;20491;-84
2023/12/19 14:30:15;;;;;;;22.30;14.43;;;5.00;74.80;;;;;;4131988;28;20050;-82
2023/12/19 14:32:18;;;;;;;23.48;14.50;;;5.00;75.10;;;;;;4131559;28;20109;-78
2023/12/19 14:34:20;;;;;;;24.83;14.77;;;4.90;75.30;;;;;;4130526;28;20050;-79
2023/12/19 14:36:22;;;;;;;23.17;14.07;;;4.90;75.90;;;;;;4130349;28;20459;-80
2023/12/19 14:38:24;;;;;;;21.88;14.27;;;4.90;76.10;;;;;;4128584;28;20407;-79
2023/12/19 14:40:27;;;;;;;23.88;15.23;;;4.90;76.30;;;;;;4130736;28;20057;-80
2023/12/19 14:42:28;;;;;;;23.67;14.10;;;4.80;76.10;;;;;;4130525;28;20463;-79
2023/12/19 14:44:31;;;;;;;24.70;13.65;;;4.80;76.20;;;;;;4130624;28;20053;-79
2023/12/19 14:46:32;;;;;;;24.02;14.73;;;4.80;76.60;;;;;;4130295;28;20092;-77
2023/12/19 14:48:34;;;;;;;22.88;14.80;;;4.70;76.80;;;;;;4123351;28;20057;-79
2023/12/19 14:50:36;;;;;;;22.67;14.25;;;4.70;77.00;;;;;;4114198;28;20047;-79
2023/12/19 14:52:38;;;;;;;24.77;14.80;;;4.80;76.90;;;;;;4114054;28;20102;-79
2023/12/19 14:54:40;;;;;;;24.75;15.15;;;4.70;77.10;;;;;;4097130;29;20055;-80
2023/12/19 14:56:44;;;;;;;24.27;15.05;;;4.80;76.80;;;;;;4097193;28;20130;-78
2023/12/19 14:58:46;;;;;;;22.88;14.50;;;4.70;77.30;;;;;;4114329;28;20496;-78
2023/12/19 15:00:49;;;;;;;23.95;15.77;;;4.70;77.50;;;;;;4117391;28;20501;-80
2023/12/19 15:02:51;;;;;;;24.00;14.57;;;4.70;77.30;;;;;;4130569;28;20538;-80
2023/12/19 15:04:52;;;;;;;22.13;13.93;;;4.70;77.50;;;;;;4130493;28;20278;-77
2023/12/19 15:06:54;;;;;;;21.70;14.13;;;4.70;77.60;;;;;;4131008;28;20055;-79
2023/12/19 15:08:56;;;;;;;22.77;14.77;;;4.60;77.60;;;;;;4130568;28;20164;-80
2023/12/19 15:10:58;;;;;;;21.90;14.52;;;4.60;77.70;;;;;;4130504;28;20133;-79
2023/12/19 15:13:01;;;;;;;24.80;13.93;;;4.50;77.90;;;;;;4130303;28;20507;-80
2023/12/19 15:15:04;;;;;;;22.02;14.15;;;4.40;78.20;;;;;;4130100;28;20495;-79
2023/12/19 15:17:06;;;;;;;21.33;13.90;;;4.40;78.40;;;;;;4129896;28;20055;-79
2023/12/19 15:19:07;;;;;;;24.17;14.30;;;4.30;78.50;;;;;;4129858;28;20474;-81
2023/12/19 15:21:13;;;;;;;21.35;13.32;;;4.40;78.70;;;;;;4131979;28;20046;-80
2023/12/19 15:23:15;;;;;;;21.10;13.20;;;4.40;78.70;;;;;;4130479;28;20438;-79
2023/12/19 15:25:17;;;;;;;22.48;13.77;;;4.30;78.60;;;;;;4130484;28;20063;-78
2023/12/19 15:27:19;;;;;;;22.30;14.13;;;4.30;78.70;;;;;;4112727;28;20059;-79
2023/12/19 15:29:24;;;;;;;23.08;13.70;;;4.20;79.00;;;;;;4130312;28;20431;-79
2023/12/19 15:31:26;;;;;;;23.15;13.27;;;4.20;79.00;;;;;;4130183;28;20051;-80
2023/12/19 15:33:28;;;;;;;22.60;13.40;;;4.20;79.10;;;;;;4130031;28;20100;-81
2023/12/19 15:35:30;;;;;;;23.17;12.98;;;4.20;79.20;;;;;;4130061;28;20077;-78
2023/12/19 15:37:31;;;;;;;22.15;13.40;;;4.20;79.10;;;;;;4128317;28;20050;-79
2023/12/19 15:39:33;;;;;;;22.83;12.80;;;4.20;79.20;;;;;;4129749;28;20385;-80
2023/12/19 15:41:34;;;;;;;19.70;12.23;;;4.10;79.40;;;;;;4130138;28;20455;-79
2023/12/19 15:43:38;;;;;;;18.45;12.05;;;4.10;79.70;;;;;;4130121;28;20050;-80
2023/12/19 15:45:41;;;;;;;21.52;13.18;;;4.10;79.90;;;;;;4130204;28;20722;-80
2023/12/19 15:47:44;;;;;;;18.73;12.90;;;4.10;79.60;;;;;;4130305;28;20113;-79
2023/12/19 15:49:46;;;;;;;20.65;12.95;;;4.10;79.60;;;;;;4129815;28;20149;-80
2023/12/19 15:51:47;;;;;;;22.70;13.65;;;4.10;79.80;;;;;;4129636;28;20062;-78
2023/12/19 15:53:50;;;;;;;21.27;13.52;;;4.20;80.00;;;;;;4131335;28;20101;-78
2023/12/19 15:55:51;;;;;;;23.05;13.38;;;4.20;79.70;;;;;;4132847;28;20046;-79
2023/12/19 15:57:54;;;;;;;23.98;13.27;;;4.20;79.80;;;;;;4133163;28;20096;-80
2023/12/19 15:59:56;;;;;;;20.70;13.13;;;4.20;79.90;;;;;;4132869;28;20161;-77
2023/12/19 16:01:59;;;;;;;21.15;12.45;;;4.20;79.90;;;;;;4132689;28;20089;-80
2023/12/19 16:04:01;;;;;;;20.33;12.20;;;4.20;79.90;;;;;;4132711;28;20575;-79
2023/12/19 16:06:03;;;;;;;19.42;12.07;;;4.20;79.80;;;;;;4133084;28;20419;-78
2023/12/19 16:08:06;;;;;;;19.88;11.32;;;4.20;80.00;;;;;;4132852;28;20054;-79
2023/12/19 16:10:09;;;;;;;19.38;12.27;;;4.20;79.90;;;;;;4132792;28;20460;-79
2023/12/19 16:12:11;;;;;;;21.13;12.35;;;4.20;80.10;;;;;;4132811;28;20616;-79
2023/12/19 16:14:13;;;;;;;20.20;12.60;;;4.20;79.90;;;;;;4132429;28;20472;-79
2023/12/19 16:16:15;;;;;;;23.02;13.15;;;4.20;79.80;;;;;;4132572;28;20496;-78
2023/12/19 16:18:18;;;;;;;19.70;12.35;;;4.20;79.90;;;;;;4132901;28;20077;-78
2023/12/19 16:20:20;;;;;;;20.77;12.68;;;4.20;80.30;;;;;;4132949;28;20077;-80
2023/12/19 16:22:22;;;;;;;21.45;13.15;;;4.20;80.50;;;;;;4132841;28;20050;-79
2023/12/19 16:24:23;;;;;;;23.73;12.80;;;4.20;80.30;;;;;;4132696;28;20046;-77
2023/12/19 16:26:25;;;;;;;20.63;12.48;;;4.20;80.30;;;;;;4132577;28;20048;-79
2023/12/19 16:28:27;;;;;;;20.10;12.30;;;4.10;80.30;;;;;;4132429;28;20050;-76
2023/12/19 16:30:29;;;;;;;19.65;12.65;;;4.10;80.50;;;;;;4132640;28;20125;-76
2023/12/19 16:32:31;;;;;;;21.30;12.32;;;4.10;80.50;;;;;;4132574;28;20050;-77
2023/12/19 16:34:34;;;;;;;20.90;12.63;;;4.10;80.50;;;;;;4132630;28;20488;-77
2023/12/19 16:36:36;;;;;;;20.38;13.13;;;4.10;80.40;;;;;;4132004;28;20460;-76
2023/12/19 16:38:41;;;;;;;21.05;13.18;;;4.10;80.50;;;;;;4130479;28;20047;-81